createdAt,value
2017-10-04T00:01:37.188Z,2.80
2017-10-04T00:04:12.010Z,3.27
2017-10-04T00:06:46.797Z,2.30
2017-10-04T00:09:22.358Z,3.90
2017-10-04T00:11:56.978Z,3.33
2017-10-04T00:14:31.638Z,3.67
2017-10-04T00:17:06.301Z,4.67
2017-10-04T00:19:40.960Z,2.93
2017-10-04T00:22:15.730Z,3.93
2017-10-04T00:24:52.074Z,3.70
2017-10-04T00:27:26.694Z,3.40
2017-10-04T00:30:01.297Z,3.00
2017-10-04T00:32:35.952Z,2.90
2017-10-04T00:35:10.303Z,3.07
2017-10-04T00:37:45.358Z,3.50
2017-10-04T00:40:19.964Z,3.27
2017-10-04T00:42:55.610Z,3.20
2017-10-04T00:45:30.162Z,3.40
2017-10-04T00:48:04.794Z,3.60
2017-10-04T00:50:39.570Z,2.80
2017-10-04T00:53:14.227Z,3.10
2017-10-04T00:55:48.510Z,2.90
2017-10-04T00:58:23.215Z,3.40
2017-10-04T01:00:58.135Z,3.30
2017-10-04T01:03:33.016Z,3.23
2017-10-04T01:06:07.571Z,2.73
2017-10-04T01:08:42.154Z,4.20
2017-10-04T01:11:16.462Z,3.13
2017-10-04T01:13:51.430Z,3.83
2017-10-04T01:16:26.967Z,2.93
2017-10-04T01:19:01.265Z,3.60
2017-10-04T01:21:35.941Z,2.97
2017-10-04T01:24:11.037Z,2.73
2017-10-04T01:26:45.614Z,2.93
2017-10-04T01:29:20.397Z,3.20
2017-10-04T01:31:55.253Z,2.90
2017-10-04T01:34:29.905Z,4.03
2017-10-04T01:37:05.473Z,3.00
2017-10-04T01:39:40.058Z,3.07
2017-10-04T01:42:14.670Z,3.13
2017-10-04T01:44:49.293Z,3.40
2017-10-04T01:47:23.922Z,3.03
2017-10-04T01:49:58.506Z,3.07
2017-10-04T01:52:33.104Z,3.53
2017-10-04T01:55:07.762Z,3.10
2017-10-04T01:57:42.492Z,2.77
2017-10-04T02:00:16.938Z,2.97
2017-10-04T02:02:52.602Z,3.30
2017-10-04T02:05:27.218Z,2.20
2017-10-04T02:08:02.993Z,3.30
2017-10-04T02:10:37.602Z,2.83
2017-10-04T02:13:12.270Z,2.63
2017-10-04T02:15:46.906Z,3.03
2017-10-04T02:18:21.739Z,4.20
2017-10-04T02:20:56.385Z,3.67
2017-10-04T02:23:32.154Z,3.37
2017-10-04T02:26:06.829Z,3.03
2017-10-04T02:28:42.436Z,3.60
2017-10-04T02:31:19.161Z,3.20
2017-10-04T02:33:54.721Z,2.30
2017-10-04T02:36:29.342Z,3.13
2017-10-04T02:39:03.401Z,2.93
2017-10-04T02:41:38.546Z,3.10
2017-10-04T02:44:13.191Z,2.70
2017-10-04T02:46:48.618Z,3.27
2017-10-04T02:49:23.362Z,3.03
2017-10-04T02:51:57.939Z,4.10
2017-10-04T02:54:33.441Z,3.27
2017-10-04T02:57:08.113Z,3.87
2017-10-04T02:59:42.826Z,4.03
2017-10-04T03:02:17.569Z,3.10
2017-10-04T03:04:52.406Z,3.47
2017-10-04T03:07:27.050Z,2.90
2017-10-04T03:10:01.706Z,3.87
2017-10-04T03:12:36.329Z,3.30
2017-10-04T03:15:11.013Z,3.17
2017-10-04T03:17:45.673Z,4.00
2017-10-04T03:20:20.242Z,3.83
2017-10-04T03:22:54.922Z,5.10
2017-10-04T03:25:29.521Z,3.90
2017-10-04T03:28:04.193Z,3.73
2017-10-04T03:30:38.802Z,3.43
2017-10-04T03:33:13.461Z,3.60
2017-10-04T03:35:48.262Z,4.03
2017-10-04T03:38:22.921Z,4.00
2017-10-04T03:40:57.649Z,4.10
2017-10-04T03:43:32.349Z,4.17
2017-10-04T03:46:08.114Z,5.20
2017-10-04T03:48:42.737Z,4.80
2017-10-04T03:51:17.537Z,4.40
2017-10-04T03:53:51.981Z,4.97
2017-10-04T03:56:26.737Z,4.43
2017-10-04T03:59:01.417Z,4.57
2017-10-04T04:01:36.166Z,5.77
2017-10-04T04:04:10.766Z,5.07
2017-10-04T04:06:45.539Z,4.90
2017-10-04T04:09:19.981Z,6.60
2017-10-04T04:11:54.625Z,5.73
2017-10-04T04:14:29.290Z,7.50
2017-10-04T04:17:04.037Z,5.07
2017-10-04T04:19:38.625Z,5.53
2017-10-04T04:22:13.238Z,5.13
2017-10-04T04:24:47.957Z,5.50
2017-10-04T04:27:22.550Z,5.90
2017-10-04T04:29:57.389Z,5.20
2017-10-04T04:32:31.999Z,6.20
2017-10-04T04:35:06.622Z,5.53
2017-10-04T04:37:40.688Z,5.67
2017-10-04T04:40:15.674Z,5.30
2017-10-04T04:42:51.597Z,5.93
2017-10-04T04:45:26.754Z,6.30
2017-10-04T04:48:01.458Z,5.60
2017-10-04T04:50:36.110Z,5.20
2017-10-04T04:53:10.700Z,5.23
2017-10-04T04:55:45.338Z,5.97
2017-10-04T04:58:20.243Z,7.93
2017-10-04T05:00:55.017Z,5.47
2017-10-04T05:03:29.602Z,6.30
2017-10-04T05:06:04.178Z,5.90
2017-10-04T05:08:39.002Z,5.70
2017-10-04T05:11:13.978Z,6.07
2017-10-04T05:13:48.467Z,4.80
2017-10-04T05:16:23.114Z,5.50
2017-10-04T05:18:58.777Z,5.00
2017-10-04T05:21:33.402Z,6.07
2017-10-04T05:24:08.201Z,6.83
2017-10-04T05:26:42.930Z,5.50
2017-10-04T05:29:17.569Z,6.47
2017-10-04T05:31:52.233Z,6.80
2017-10-04T05:34:27.026Z,6.00
2017-10-04T05:37:01.717Z,4.77
2017-10-04T05:39:36.693Z,6.00
2017-10-04T05:42:11.101Z,6.97
2017-10-04T05:44:45.857Z,4.87
2017-10-04T05:47:20.577Z,4.67
2017-10-04T05:49:55.391Z,4.93
2017-10-04T05:52:31.050Z,4.63
2017-10-04T05:55:05.777Z,5.20
2017-10-04T05:57:40.212Z,5.97
2017-10-04T06:00:14.951Z,5.10
2017-10-04T06:02:49.778Z,4.27
2017-10-04T06:05:24.518Z,4.63
2017-10-04T06:07:59.078Z,4.23
2017-10-04T06:10:33.834Z,4.30
2017-10-04T06:13:08.358Z,4.40
2017-10-04T06:15:43.093Z,5.23
2017-10-04T06:18:17.698Z,4.53
2017-10-04T06:20:53.390Z,9.30
2017-10-04T06:23:28.073Z,4.97
2017-10-04T06:26:02.953Z,6.40
2017-10-04T06:28:37.602Z,5.00
2017-10-04T06:31:12.285Z,5.97
2017-10-04T06:33:47.066Z,4.97
2017-10-04T06:36:21.794Z,5.13
2017-10-04T06:38:56.474Z,5.40
2017-10-04T06:41:31.221Z,4.93
2017-10-04T06:44:05.708Z,5.00
2017-10-04T06:46:40.431Z,5.40
2017-10-04T06:49:15.065Z,5.77
2017-10-04T06:51:49.914Z,4.20
2017-10-04T06:54:24.594Z,5.13
2017-10-04T06:56:59.194Z,4.97
2017-10-04T06:59:33.748Z,5.00
2017-10-04T07:02:08.454Z,5.60
2017-10-04T07:04:43.234Z,5.70
2017-10-04T07:07:18.925Z,4.20
2017-10-04T07:09:53.589Z,4.10
2017-10-04T07:12:28.266Z,4.17
2017-10-04T07:15:02.870Z,4.43
2017-10-04T07:17:37.545Z,4.53
2017-10-04T07:20:12.025Z,4.57
2017-10-04T07:22:46.770Z,5.47
2017-10-04T07:25:21.457Z,4.70
2017-10-04T07:27:56.632Z,4.30
2017-10-04T07:30:31.691Z,3.80
2017-10-04T07:33:06.377Z,4.70
2017-10-04T07:35:41.069Z,4.23
2017-10-04T07:38:15.958Z,3.57
2017-10-04T07:40:50.661Z,4.40
2017-10-04T07:43:25.402Z,3.70
2017-10-04T07:45:59.858Z,3.37
2017-10-04T07:48:34.586Z,4.40
2017-10-04T07:51:09.218Z,2.97
2017-10-04T07:53:43.770Z,3.73
2017-10-04T07:56:18.217Z,3.20
2017-10-04T07:58:53.078Z,3.20
2017-10-04T08:01:27.854Z,4.10
2017-10-04T08:04:02.709Z,4.30
2017-10-04T08:06:37.385Z,3.57
2017-10-04T08:09:12.117Z,4.77
2017-10-04T08:11:46.797Z,3.70
2017-10-04T08:14:21.449Z,3.87
2017-10-04T08:16:56.022Z,3.33
2017-10-04T08:19:30.783Z,3.40
2017-10-04T08:22:05.330Z,3.83
2017-10-04T08:24:39.877Z,3.97
2017-10-04T08:27:14.861Z,3.60
2017-10-04T08:29:49.566Z,4.63
2017-10-04T08:32:24.021Z,3.50
2017-10-04T08:34:58.793Z,3.13
2017-10-04T08:37:33.500Z,4.50
2017-10-04T08:40:08.211Z,4.13
2017-10-04T08:42:43.085Z,4.07
2017-10-04T08:57:08.919Z,3.60
2017-10-04T08:59:43.676Z,3.13
2017-10-04T09:02:18.301Z,3.43
2017-10-04T09:05:04.040Z,3.40
2017-10-04T09:07:38.679Z,3.60
2017-10-04T09:10:13.403Z,3.37
2017-10-04T09:12:48.173Z,3.30
2017-10-04T09:15:22.959Z,3.37
2017-10-04T09:17:57.791Z,3.37
2017-10-04T09:20:32.616Z,3.50
2017-10-04T09:23:07.356Z,3.93
2017-10-04T09:25:42.063Z,3.30
2017-10-04T09:28:16.878Z,3.43
2017-10-04T09:30:52.135Z,3.57
2017-10-04T09:33:27.484Z,2.73
2017-10-04T09:36:02.260Z,2.67
2017-10-04T09:38:36.873Z,3.37
2017-10-04T09:41:11.776Z,3.10
2017-10-04T09:43:46.381Z,3.10
2017-10-04T09:46:21.192Z,2.73
2017-10-04T09:48:55.696Z,2.40
2017-10-04T09:51:30.508Z,4.00
2017-10-04T09:54:05.343Z,3.90
2017-10-04T09:56:39.988Z,2.90
2017-10-04T09:59:15.473Z,3.93
2017-10-04T10:01:50.253Z,2.43
2017-10-04T10:04:24.975Z,3.33
2017-10-04T10:06:59.736Z,3.30
2017-10-04T10:09:34.384Z,3.23
2017-10-04T10:12:10.181Z,5.20
2017-10-04T10:14:44.832Z,3.80
2017-10-04T10:17:19.620Z,4.10
2017-10-04T10:19:54.347Z,4.07
2017-10-04T10:22:29.007Z,2.53
2017-10-04T10:25:03.599Z,3.33
2017-10-04T10:27:38.460Z,3.43
2017-10-04T10:30:13.218Z,4.83
2017-10-04T10:32:47.999Z,3.50
2017-10-04T10:35:22.700Z,3.00
2017-10-04T10:37:57.496Z,3.07
2017-10-04T10:40:32.132Z,4.27
2017-10-04T10:43:06.956Z,3.50
2017-10-04T10:45:41.501Z,3.40
2017-10-04T10:48:16.326Z,3.13
2017-10-04T10:50:51.068Z,3.10
2017-10-04T10:53:25.812Z,4.00
2017-10-04T10:56:00.450Z,3.13
2017-10-04T10:58:35.232Z,3.63
2017-10-04T11:01:09.945Z,3.60
2017-10-04T11:03:44.296Z,3.90
2017-10-04T11:06:19.068Z,4.30
2017-10-04T11:08:53.817Z,5.70
2017-10-04T11:11:28.500Z,6.63
2017-10-04T11:14:03.349Z,5.07
2017-10-04T11:16:37.919Z,3.00
2017-10-04T11:19:12.556Z,5.50
2017-10-04T11:21:47.239Z,4.60
2017-10-04T11:24:21.855Z,4.60
2017-10-04T11:26:56.564Z,3.80
2017-10-04T11:29:31.232Z,3.77
2017-10-04T11:32:05.664Z,3.87
2017-10-04T11:34:40.308Z,5.47
2017-10-04T11:37:15.024Z,4.67
2017-10-04T11:39:49.674Z,4.67
2017-10-04T11:42:24.450Z,4.53
2017-10-04T11:44:59.296Z,4.63
2017-10-04T11:47:34.017Z,4.40
2017-10-04T11:50:08.745Z,4.73
2017-10-04T11:52:43.433Z,4.30
2017-10-04T11:55:18.152Z,5.70
2017-10-04T11:57:52.824Z,5.23
2017-10-04T12:00:27.615Z,4.40
2017-10-04T12:03:02.288Z,5.00
2017-10-04T12:05:37.019Z,4.67
2017-10-04T12:08:11.844Z,4.33
2017-10-04T12:10:46.612Z,4.50
2017-10-04T12:13:21.157Z,3.90
2017-10-04T12:15:55.967Z,5.50
2017-10-04T12:18:30.508Z,5.87
2017-10-04T12:21:05.143Z,7.60
2017-10-04T12:23:39.817Z,3.60
2017-10-04T12:26:14.360Z,3.90
2017-10-04T12:28:48.824Z,4.27
2017-10-04T12:31:23.517Z,4.17
2017-10-04T12:33:58.200Z,4.17
2017-10-04T12:36:32.968Z,4.00
2017-10-04T12:39:07.453Z,4.90
2017-10-04T12:41:42.178Z,4.40
2017-10-04T12:44:16.811Z,4.00
2017-10-04T12:46:51.368Z,3.80
2017-10-04T12:49:26.928Z,4.43
2017-10-04T12:52:01.561Z,3.70
2017-10-04T12:54:36.308Z,4.40
2017-10-04T12:57:10.981Z,3.80
2017-10-04T12:59:45.740Z,3.90
2017-10-04T13:02:20.483Z,3.80
2017-10-04T13:04:55.116Z,3.70
2017-10-04T13:07:30.000Z,3.97
2017-10-04T13:10:04.728Z,3.93
2017-10-04T13:12:40.535Z,3.80
2017-10-04T13:15:15.193Z,3.60
2017-10-04T13:17:49.736Z,3.83
2017-10-04T13:20:24.231Z,4.23
2017-10-04T13:22:58.920Z,4.13
2017-10-04T13:25:33.434Z,4.30
2017-10-04T13:28:08.001Z,3.87
2017-10-04T13:30:42.723Z,3.77
2017-10-04T13:33:17.110Z,3.70
2017-10-04T13:35:51.826Z,4.30
2017-10-04T13:38:27.119Z,3.80
2017-10-04T13:41:01.897Z,4.30
2017-10-04T13:43:36.624Z,4.93
2017-10-04T13:46:11.131Z,4.20
2017-10-04T13:48:45.658Z,3.47
2017-10-04T13:51:20.281Z,4.90
2017-10-04T13:53:55.157Z,4.67
2017-10-04T13:56:29.927Z,3.23
2017-10-04T13:59:04.710Z,4.77
2017-10-04T14:01:39.492Z,4.53
2017-10-04T14:04:14.016Z,3.47
2017-10-04T14:06:48.752Z,3.47
2017-10-04T14:09:23.384Z,4.53
2017-10-04T14:11:57.905Z,4.17
2017-10-04T14:14:32.665Z,4.43
2017-10-04T14:17:07.375Z,4.60
2017-10-04T14:19:42.094Z,4.80
2017-10-04T14:22:22.189Z,5.03
2017-10-04T14:24:56.656Z,3.83
2017-10-04T14:27:31.195Z,4.70
2017-10-04T14:30:05.956Z,4.20
2017-10-04T14:32:40.572Z,4.40
2017-10-04T14:35:15.367Z,5.30
2017-10-04T14:37:50.056Z,4.20
2017-10-04T14:40:24.732Z,4.40
2017-10-04T14:42:59.378Z,4.37
2017-10-04T14:45:33.980Z,4.40
2017-10-04T14:48:09.543Z,4.27
2017-10-04T14:50:44.073Z,4.27
2017-10-04T14:53:18.727Z,4.70
2017-10-04T14:55:53.299Z,4.97
2017-10-04T14:58:28.103Z,4.77
2017-10-04T15:01:02.848Z,4.30
2017-10-04T15:03:38.529Z,4.20
2017-10-04T15:06:13.191Z,5.10
2017-10-04T15:08:47.903Z,4.90
2017-10-04T15:11:22.491Z,5.97
2017-10-04T15:13:57.440Z,5.33
2017-10-04T15:16:31.947Z,4.90
2017-10-04T15:19:06.618Z,5.13
2017-10-04T15:21:41.331Z,4.57
2017-10-04T15:24:15.968Z,5.20
2017-10-04T15:26:50.391Z,3.30
2017-10-04T15:29:24.963Z,3.30
2017-10-04T15:31:59.808Z,4.40
2017-10-04T15:34:34.489Z,5.20
2017-10-04T15:37:09.199Z,4.13
2017-10-04T15:39:43.665Z,4.30
2017-10-04T15:42:18.663Z,5.40
2017-10-04T15:44:53.497Z,4.50
2017-10-04T15:47:28.090Z,5.07
2017-10-04T15:50:02.748Z,4.10
2017-10-04T15:52:37.423Z,4.27
2017-10-04T15:55:11.904Z,5.43
2017-10-04T15:57:46.609Z,4.53
2017-10-04T16:00:21.352Z,5.27
2017-10-04T16:02:56.126Z,4.70
2017-10-04T16:05:30.958Z,5.00
2017-10-04T16:08:05.516Z,5.03
2017-10-04T16:10:40.276Z,3.70
2017-10-04T16:13:15.110Z,4.57
2017-10-04T16:15:49.834Z,3.83
2017-10-04T16:18:24.634Z,3.90
2017-10-04T16:20:59.396Z,4.03
2017-10-04T16:23:34.043Z,3.67
2017-10-04T16:26:08.717Z,2.53
2017-10-04T16:28:43.272Z,3.70
2017-10-04T16:31:17.905Z,3.60
2017-10-04T16:33:52.683Z,2.80
2017-10-04T16:36:27.331Z,3.80
2017-10-04T16:39:01.751Z,3.97
2017-10-04T16:41:36.268Z,3.37
2017-10-04T16:44:10.903Z,3.40
2017-10-04T16:46:45.610Z,3.23
2017-10-04T16:49:20.277Z,2.87
2017-10-04T16:51:54.828Z,3.67
2017-10-04T16:54:29.357Z,3.90
2017-10-04T16:57:04.163Z,3.17
2017-10-04T16:59:38.763Z,3.40
2017-10-04T17:02:13.592Z,3.70
2017-10-04T17:04:48.228Z,2.83
2017-10-04T17:07:22.873Z,3.30
2017-10-04T17:09:57.458Z,4.30
2017-10-04T17:12:32.134Z,3.50
2017-10-04T17:15:06.828Z,3.43
2017-10-04T17:17:41.560Z,3.20
2017-10-04T17:20:16.332Z,3.30
2017-10-04T17:22:52.412Z,2.87
2017-10-04T17:25:27.809Z,3.80
2017-10-04T17:28:02.335Z,2.87
2017-10-04T17:30:37.096Z,2.73
2017-10-04T17:33:11.677Z,3.20
2017-10-04T17:35:46.521Z,3.47
2017-10-04T17:38:21.099Z,2.93
2017-10-04T17:40:55.774Z,3.73
2017-10-04T17:43:30.255Z,2.80
2017-10-04T17:46:05.000Z,2.47
2017-10-04T17:48:39.856Z,2.27
2017-10-04T17:51:15.218Z,2.80
2017-10-04T17:53:49.816Z,2.93
2017-10-04T17:56:24.581Z,2.57
2017-10-04T17:58:59.327Z,3.27
2017-10-04T18:01:33.997Z,2.50
2017-10-04T18:04:08.635Z,2.27
2017-10-04T18:06:43.296Z,3.00
2017-10-04T18:09:18.035Z,2.37
2017-10-04T18:11:53.727Z,2.50
2017-10-04T18:14:28.438Z,2.40
2017-10-04T18:17:04.654Z,1.90
2017-10-04T18:19:39.731Z,2.17
2017-10-04T18:22:14.548Z,2.30
2017-10-04T18:24:49.379Z,1.90
2017-10-04T18:27:24.152Z,2.30
2017-10-04T18:29:58.588Z,2.37
2017-10-04T18:32:33.378Z,2.03
2017-10-04T18:35:08.019Z,2.60
2017-10-04T18:37:42.794Z,3.10
2017-10-04T18:40:17.284Z,4.00
2017-10-04T18:42:52.026Z,2.80
2017-10-04T18:45:26.512Z,2.33
2017-10-04T18:48:01.088Z,2.40
2017-10-04T18:50:35.722Z,2.43
2017-10-04T18:53:10.391Z,2.67
2017-10-04T18:55:45.023Z,2.60
2017-10-04T18:58:19.776Z,2.93
2017-10-04T19:00:54.411Z,2.20
2017-10-04T19:03:29.127Z,2.80
2017-10-04T19:06:03.655Z,2.93
2017-10-04T19:08:38.276Z,2.10
2017-10-04T19:11:12.972Z,2.20
2017-10-04T19:13:47.658Z,2.90
2017-10-04T19:16:22.428Z,2.50
2017-10-04T19:18:57.322Z,2.40
2017-10-04T19:21:31.893Z,2.73
2017-10-04T19:24:06.607Z,3.10
2017-10-04T19:26:41.231Z,2.97
2017-10-04T19:29:15.820Z,3.47
2017-10-04T19:31:50.365Z,2.30
2017-10-04T19:34:25.271Z,2.63
2017-10-04T19:36:59.721Z,2.43
2017-10-04T19:39:34.456Z,3.10
2017-10-04T19:42:09.107Z,2.53
2017-10-04T19:44:43.693Z,2.93
2017-10-04T19:47:18.248Z,2.40
2017-10-04T19:52:51.579Z,2.20
2017-10-04T19:55:26.951Z,2.90
2017-10-04T19:58:01.677Z,3.00
2017-10-04T20:00:36.313Z,2.90
2017-10-04T20:03:11.108Z,2.87
2017-10-04T20:05:45.801Z,2.73
2017-10-04T20:08:20.245Z,2.40
2017-10-04T20:10:55.500Z,3.53
2017-10-04T20:13:30.603Z,2.63
2017-10-04T20:16:06.358Z,2.50
2017-10-04T20:18:41.007Z,2.30
2017-10-04T20:21:15.659Z,2.30
2017-10-04T20:23:50.359Z,2.67
2017-10-04T20:26:25.020Z,2.40
2017-10-04T20:28:59.643Z,2.07
2017-10-04T20:31:34.349Z,2.13
2017-10-04T20:34:09.071Z,2.67
2017-10-04T20:36:43.823Z,2.20
2017-10-04T20:39:18.332Z,3.13
2017-10-04T20:41:53.109Z,2.80
2017-10-04T20:44:27.893Z,2.27
2017-10-04T20:47:02.539Z,2.40
2017-10-04T20:49:37.374Z,2.80
2017-10-04T20:52:12.167Z,2.20
2017-10-04T20:54:46.894Z,2.97
2017-10-04T20:57:21.351Z,3.00
2017-10-04T20:59:56.380Z,2.00
2017-10-04T21:02:30.788Z,2.07
2017-10-04T21:05:05.711Z,2.67
2017-10-04T21:07:40.537Z,2.50
2017-10-04T21:10:14.955Z,1.90
2017-10-04T21:12:49.820Z,2.40
2017-10-04T21:15:24.685Z,2.33
2017-10-04T21:17:59.305Z,3.10
2017-10-04T21:20:34.483Z,2.50
2017-10-04T21:23:09.331Z,3.27
2017-10-04T21:25:44.991Z,2.40
2017-10-04T21:28:19.588Z,2.67
2017-10-04T21:30:54.555Z,3.03
2017-10-04T21:33:29.157Z,2.70
2017-10-04T21:36:03.779Z,2.77
2017-10-04T21:38:38.661Z,2.83
2017-10-04T21:41:13.765Z,2.27
2017-10-04T21:43:48.402Z,3.07
2017-10-04T21:46:23.129Z,2.57
2017-10-04T21:48:58.034Z,2.80
2017-10-04T21:51:32.799Z,2.63
2017-10-04T21:54:07.679Z,2.90
2017-10-04T21:56:42.145Z,3.03
2017-10-04T21:59:16.891Z,3.07
2017-10-04T22:01:51.889Z,3.90
2017-10-04T22:04:26.468Z,3.33
2017-10-04T22:07:01.149Z,3.07
2017-10-04T22:09:36.037Z,2.80
2017-10-04T22:12:10.880Z,3.57
2017-10-04T22:14:45.628Z,3.93
2017-10-04T22:17:20.386Z,3.60
2017-10-04T22:19:55.103Z,3.50
2017-10-04T22:22:29.645Z,3.57
2017-10-04T22:25:05.044Z,4.43
2017-10-04T22:27:39.799Z,3.53
2017-10-04T22:30:14.641Z,3.80
2017-10-04T22:32:49.452Z,4.80
2017-10-04T22:35:24.408Z,4.70
2017-10-04T22:37:59.253Z,4.67
2017-10-04T22:40:33.995Z,5.00
2017-10-04T22:43:08.615Z,5.20
2017-10-04T22:45:43.527Z,4.60
2017-10-04T22:48:18.452Z,5.30
2017-10-04T22:50:53.171Z,5.40
2017-10-04T22:53:28.041Z,4.40
2017-10-04T22:56:04.337Z,5.17
2017-10-04T22:58:39.621Z,5.83
2017-10-04T23:01:14.468Z,5.90
2017-10-04T23:03:49.165Z,5.43
2017-10-04T23:06:23.824Z,5.90
2017-10-04T23:08:58.629Z,5.53
2017-10-04T23:11:33.418Z,6.20
2017-10-04T23:14:08.037Z,6.50
2017-10-04T23:16:43.153Z,6.30
2017-10-04T23:19:17.532Z,7.07
2017-10-04T23:21:52.496Z,6.73
2017-10-04T23:24:27.328Z,6.93
2017-10-04T23:27:02.280Z,6.50
2017-10-04T23:29:37.389Z,7.10
2017-10-04T23:32:12.363Z,6.27
2017-10-04T23:34:47.404Z,6.53
2017-10-04T23:37:22.064Z,7.20
2017-10-04T23:39:56.914Z,7.23
2017-10-04T23:42:31.904Z,7.50
2017-10-04T23:45:06.690Z,7.60
2017-10-04T23:47:41.632Z,7.60
2017-10-04T23:50:16.408Z,9.00
2017-10-04T23:52:51.383Z,9.27
2017-10-04T23:55:26.245Z,8.67
2017-10-04T23:58:01.089Z,8.53
